Antonia, Louisiana
Current Conditions -  °F | °C
As of 10:53 AM on Tuesday 21 Oct 2014 (Local Time) from KAEX Reporting Station
Clear Clear  
Wind Chill: 72°   Ceiling: Unl
Heat Index: 72°   Visibility: 10mi
Dew Point: 52°   Wind: 6mph
Humidity: 49%   Direction: 70°ENE
Pressure: 30.1"   Gusts: NA
Location:  31.538°N, 92.3799°W
Report Text: KAEX 211553Z 07005KT 10SM CLR 22/11 A3010 RMK AO2 SLP195 T02220111
Loading
Personal Weather Stations






























Interactive Weather Map
Tropical Storm Tracking
New forecast layout! Learn more

10-Day Weather Forecast

Advertisements
Track Severe Weather on mobile